createdAt,value
2023-03-22T00:00:01.504Z,3.10
2023-03-22T00:02:30.764Z,2.20
2023-03-22T00:04:57.902Z,2.90
2023-03-22T00:07:26.776Z,2.60
2023-03-22T00:09:53.946Z,2.30
2023-03-22T00:12:21.199Z,2.30
2023-03-22T00:14:49.795Z,2.40
2023-03-22T00:17:16.935Z,1.90
2023-03-22T00:19:45.323Z,2.40
2023-03-22T00:22:14.830Z,3.50
2023-03-22T00:24:42.184Z,2.50
2023-03-22T00:27:09.358Z,2.10
2023-03-22T00:29:36.813Z,2.40
2023-03-22T00:32:04.792Z,2.30
2023-03-22T00:34:33.371Z,2.50
2023-03-22T00:37:00.472Z,2.50
2023-03-22T00:39:27.693Z,2.50
2023-03-22T00:41:55.040Z,2.80
2023-03-22T00:44:22.089Z,2.50
2023-03-22T00:46:49.237Z,2.50
2023-03-22T00:49:16.598Z,3.00
2023-03-22T00:51:43.656Z,2.70
2023-03-22T00:54:11.226Z,3.10
2023-03-22T00:56:38.582Z,2.50
2023-03-22T00:59:05.745Z,2.70
2023-03-22T01:01:33.066Z,3.00
2023-03-22T01:04:00.657Z,3.00
2023-03-22T01:06:27.908Z,3.20
2023-03-22T01:08:55.473Z,3.50
2023-03-22T01:11:22.613Z,3.40
2023-03-22T01:13:50.184Z,3.50
2023-03-22T01:16:18.803Z,3.00
2023-03-22T01:18:45.921Z,3.10
2023-03-22T01:21:13.598Z,2.80
2023-03-22T01:23:40.855Z,2.60
2023-03-22T01:26:08.103Z,2.80
2023-03-22T01:28:35.261Z,3.20
2023-03-22T01:31:03.231Z,2.80
2023-03-22T01:33:31.199Z,3.20
2023-03-22T01:35:58.289Z,3.00
2023-03-22T01:38:25.616Z,2.90
2023-03-22T01:40:52.872Z,2.90
2023-03-22T01:43:20.034Z,3.00
2023-03-22T01:45:48.842Z,2.70
2023-03-22T01:48:24.810Z,3.40
2023-03-22T01:51:16.297Z,3.50
2023-03-22T01:53:47.378Z,3.30
2023-03-22T01:56:14.786Z,4.00
2023-03-22T01:58:42.459Z,3.80
2023-03-22T02:01:10.676Z,3.60
2023-03-22T02:03:58.885Z,3.30
2023-03-22T02:06:27.052Z,3.20
2023-03-22T02:08:58.089Z,3.10
2023-03-22T02:11:38.684Z,3.50
2023-03-22T02:14:15.163Z,3.70
2023-03-22T02:17:01.001Z,4.00
2023-03-22T02:19:30.928Z,4.00
2023-03-22T02:22:06.868Z,4.30
2023-03-22T02:24:57.565Z,5.00
2023-03-22T02:27:58.919Z,5.00
2023-03-22T02:30:32.187Z,6.20
2023-03-22T02:33:05.707Z,6.40
2023-03-22T02:35:39.740Z,7.40
2023-03-22T02:38:42.679Z,7.30
2023-03-22T02:41:11.833Z,7.10
2023-03-22T02:43:51.705Z,6.30
2023-03-22T02:46:39.243Z,6.30
2023-03-22T02:49:22.250Z,6.40
2023-03-22T02:51:56.940Z,5.90
2023-03-22T02:57:20.136Z,7.30
2023-03-22T02:59:47.489Z,7.30
2023-03-22T03:02:18.582Z,8.00
2023-03-22T03:04:48.731Z,6.80
2023-03-22T03:07:20.254Z,7.10
2023-03-22T03:09:47.778Z,7.40
2023-03-22T03:12:24.034Z,7.10
2023-03-22T03:14:51.508Z,6.90
2023-03-22T03:17:33.798Z,8.10
2023-03-22T03:20:39.003Z,7.70
2023-03-22T03:23:15.493Z,7.50
2023-03-22T03:26:02.612Z,7.20
2023-03-22T03:28:38.580Z,7.50
2023-03-22T03:31:28.680Z,7.50
2023-03-22T03:34:29.041Z,6.40
2023-03-22T03:37:05.915Z,5.70
2023-03-22T03:39:36.548Z,6.20
2023-03-22T03:42:04.237Z,6.40
2023-03-22T03:44:31.899Z,6.40
2023-03-22T03:46:59.038Z,5.80
2023-03-22T03:49:27.471Z,5.10
2023-03-22T03:51:56.364Z,4.80
2023-03-22T03:54:23.885Z,6.00
2023-03-22T03:56:51.136Z,5.50
2023-03-22T03:59:21.085Z,5.20
2023-03-22T04:01:52.707Z,5.70
2023-03-22T04:04:28.125Z,5.20
2023-03-22T04:06:56.998Z,5.30
2023-03-22T04:09:28.504Z,5.30
2023-03-22T04:11:56.780Z,4.90
2023-03-22T04:14:25.164Z,4.40
2023-03-22T04:16:53.206Z,4.50
2023-03-22T04:19:20.805Z,4.20
2023-03-22T04:21:48.393Z,5.50
2023-03-22T04:24:15.936Z,4.40
2023-03-22T04:26:43.096Z,4.90
2023-03-22T04:29:10.124Z,4.40
2023-03-22T04:31:37.998Z,4.60
2023-03-22T04:34:07.099Z,4.40
2023-03-22T04:36:39.801Z,4.20
2023-03-22T04:39:09.652Z,4.10
2023-03-22T04:41:37.479Z,4.70
2023-03-22T04:44:06.320Z,4.60
2023-03-22T04:46:35.763Z,4.30
2023-03-22T04:49:03.633Z,4.20
2023-03-22T04:51:32.388Z,3.70
2023-03-22T04:53:59.784Z,3.80
2023-03-22T04:56:26.961Z,4.10
2023-03-22T04:58:54.274Z,3.90
2023-03-22T05:01:21.623Z,4.20
2023-03-22T05:03:49.118Z,4.10
2023-03-22T05:06:16.581Z,4.10
2023-03-22T05:08:43.632Z,3.50
2023-03-22T05:11:28.059Z,3.40
2023-03-22T05:13:55.755Z,4.00
2023-03-22T05:16:23.438Z,3.50
2023-03-22T05:18:54.583Z,3.80
2023-03-22T05:21:37.098Z,3.80
2023-03-22T05:24:08.307Z,3.00
2023-03-22T05:26:38.166Z,3.40
2023-03-22T05:29:05.590Z,3.40
2023-03-22T05:31:34.745Z,3.90
2023-03-22T05:34:02.409Z,3.20
2023-03-22T05:36:32.371Z,3.60
2023-03-22T05:38:59.628Z,3.60
2023-03-22T05:41:26.786Z,3.10
2023-03-22T05:43:54.212Z,3.40
2023-03-22T05:46:21.954Z,2.90
2023-03-22T05:48:49.395Z,2.90
2023-03-22T05:51:20.027Z,3.10
2023-03-22T05:53:48.051Z,2.60
2023-03-22T05:56:15.943Z,2.50
2023-03-22T05:58:43.414Z,2.90
2023-03-22T06:01:12.610Z,2.90
2023-03-22T06:03:39.870Z,3.00
2023-03-22T06:06:10.900Z,3.40
2023-03-22T06:08:39.650Z,2.90
2023-03-22T06:11:07.689Z,3.10
2023-03-22T06:13:34.868Z,2.60
2023-03-22T06:16:03.612Z,2.80
2023-03-22T06:18:31.499Z,2.10
2023-03-22T06:20:58.667Z,2.70
2023-03-22T06:23:25.800Z,2.60
2023-03-22T06:25:52.872Z,2.60
2023-03-22T06:28:20.123Z,2.50
2023-03-22T06:30:47.200Z,2.20
2023-03-22T06:33:14.321Z,2.50
2023-03-22T06:35:41.578Z,3.10
2023-03-22T06:38:08.633Z,2.20
2023-03-22T06:40:36.405Z,2.60
2023-03-22T06:43:06.933Z,2.50
2023-03-22T06:45:34.730Z,3.40
2023-03-22T06:48:02.364Z,2.90
2023-03-22T06:50:29.845Z,3.10
2023-03-22T06:52:57.096Z,2.90
2023-03-22T06:55:24.840Z,2.50
2023-03-22T06:57:52.038Z,2.00
2023-03-22T07:00:19.982Z,2.50
2023-03-22T07:02:47.236Z,2.40
2023-03-22T07:05:14.502Z,2.80
2023-03-22T07:07:42.289Z,2.50
2023-03-22T07:10:10.512Z,2.40
2023-03-22T07:12:37.712Z,2.20
2023-03-22T07:15:05.548Z,2.30
2023-03-22T07:17:32.675Z,2.70
2023-03-22T07:19:59.960Z,2.50
2023-03-22T07:22:27.540Z,2.40
2023-03-22T07:24:58.340Z,1.90
2023-03-22T07:27:26.855Z,3.20
2023-03-22T07:29:54.454Z,2.10
2023-03-22T07:32:21.717Z,3.10
2023-03-22T07:34:49.015Z,2.50
2023-03-22T07:37:16.189Z,3.00
2023-03-22T07:39:43.365Z,3.00
2023-03-22T07:42:10.490Z,3.00
2023-03-22T07:44:37.611Z,2.90
2023-03-22T07:47:05.020Z,2.60
2023-03-22T07:49:32.513Z,2.40
2023-03-22T07:51:59.828Z,2.80
2023-03-22T07:54:33.846Z,2.40
2023-03-22T07:59:29.186Z,2.90
2023-03-22T08:01:56.545Z,2.70
2023-03-22T08:04:23.785Z,2.70
2023-03-22T08:06:51.649Z,3.40
2023-03-22T08:09:18.814Z,2.50
2023-03-22T08:11:46.083Z,3.00
2023-03-22T08:14:13.140Z,2.90
2023-03-22T08:16:41.931Z,3.80
2023-03-22T08:19:09.185Z,2.40
2023-03-22T08:21:37.390Z,2.60
2023-03-22T08:24:05.354Z,3.20
2023-03-22T08:26:32.698Z,3.20
2023-03-22T08:28:59.957Z,2.60
2023-03-22T08:31:27.424Z,2.90
2023-03-22T08:33:54.974Z,2.70
2023-03-22T08:36:25.070Z,3.20
2023-03-22T08:38:51.919Z,2.70
2023-03-22T08:41:18.697Z,3.20
2023-03-22T08:43:45.625Z,3.50
2023-03-22T08:46:12.402Z,3.10
2023-03-22T08:48:41.816Z,2.80
2023-03-22T08:51:09.143Z,3.10
2023-03-22T08:53:38.581Z,3.60
2023-03-22T08:56:05.931Z,3.20
2023-03-22T08:58:32.749Z,3.20
2023-03-22T09:00:59.666Z,2.90
2023-03-22T09:03:26.641Z,3.20
2023-03-22T09:05:53.799Z,3.80
2023-03-22T09:08:22.690Z,2.50
2023-03-22T09:10:52.102Z,2.80
2023-03-22T09:13:19.913Z,2.50
2023-03-22T09:15:47.573Z,3.20
2023-03-22T09:18:15.515Z,2.90
2023-03-22T09:20:43.254Z,2.80
2023-03-22T09:23:10.347Z,3.10
2023-03-22T09:25:37.173Z,3.30
2023-03-22T09:28:04.544Z,2.70
2023-03-22T09:30:31.921Z,2.40
2023-03-22T09:32:58.832Z,2.20
2023-03-22T09:35:26.039Z,2.10
2023-03-22T09:37:54.805Z,2.20
2023-03-22T09:40:28.139Z,1.60
2023-03-22T09:42:56.766Z,2.50
2023-03-22T09:45:38.251Z,2.20
2023-03-22T09:48:20.161Z,1.80
2023-03-22T09:50:49.793Z,1.90
2023-03-22T09:53:21.872Z,2.40
2023-03-22T09:56:03.712Z,1.90
2023-03-22T09:58:46.356Z,1.70
2023-03-22T10:01:31.840Z,2.40
2023-03-22T10:04:20.885Z,1.80
2023-03-22T10:06:51.404Z,1.70
2023-03-22T10:09:44.248Z,2.00
2023-03-22T10:12:23.427Z,1.70
2023-03-22T10:14:56.010Z,1.90
2023-03-22T10:17:25.729Z,1.80
2023-03-22T10:19:56.563Z,1.60
2023-03-22T10:22:30.260Z,2.70
2023-03-22T10:24:57.623Z,1.60
2023-03-22T10:27:26.779Z,2.00
2023-03-22T10:30:20.225Z,1.50
2023-03-22T10:32:57.819Z,1.60
2023-03-22T10:35:25.824Z,1.60
2023-03-22T10:37:55.915Z,1.60
2023-03-22T10:40:28.732Z,1.70
2023-03-22T10:43:00.213Z,1.70
2023-03-22T10:45:28.079Z,1.60
2023-03-22T10:48:06.126Z,1.80
2023-03-22T10:50:37.159Z,1.70
2023-03-22T10:53:07.501Z,1.70
2023-03-22T10:55:41.336Z,1.90
2023-03-22T10:58:15.781Z,1.30
2023-03-22T11:03:44.827Z,2.30
2023-03-22T11:06:11.620Z,1.90
2023-03-22T11:09:03.543Z,1.50
2023-03-22T11:11:35.136Z,1.60
2023-03-22T11:14:07.799Z,1.80
2023-03-22T11:16:44.708Z,1.50
2023-03-22T11:19:15.892Z,2.00
2023-03-22T11:21:43.676Z,2.50
2023-03-22T11:24:13.372Z,1.80
2023-03-22T11:26:41.624Z,1.80
2023-03-22T11:29:18.854Z,1.80
2023-03-22T11:31:59.807Z,2.20
2023-03-22T11:34:29.379Z,1.80
2023-03-22T11:36:58.965Z,2.00
2023-03-22T11:39:28.594Z,1.50
2023-03-22T11:42:04.017Z,1.40
2023-03-22T11:44:36.048Z,1.60
2023-03-22T11:47:04.746Z,1.40
2023-03-22T11:49:52.234Z,1.60
2023-03-22T11:52:23.240Z,1.10
2023-03-22T11:54:50.856Z,1.30
2023-03-22T11:57:22.048Z,1.60
2023-03-22T11:59:56.846Z,2.00
2023-03-22T12:02:27.869Z,1.80
2023-03-22T12:05:21.615Z,1.50
2023-03-22T12:07:52.681Z,1.60
2023-03-22T12:10:30.286Z,1.90
2023-03-22T12:13:04.528Z,1.90
2023-03-22T12:15:41.200Z,2.20
2023-03-22T12:18:10.719Z,2.30
2023-03-22T12:20:55.952Z,1.60
2023-03-22T12:23:29.037Z,2.00
2023-03-22T12:25:58.545Z,1.90
2023-03-22T12:28:32.955Z,1.90
2023-03-22T12:33:29.429Z,2.10
2023-03-22T12:35:59.289Z,1.80
2023-03-22T12:38:40.822Z,1.50
2023-03-22T12:41:12.788Z,1.70
2023-03-22T12:43:53.249Z,1.60
2023-03-22T12:46:26.745Z,1.40
2023-03-22T12:49:15.726Z,1.40
2023-03-22T12:51:43.360Z,1.20
2023-03-22T12:54:12.959Z,1.80
2023-03-22T12:56:45.505Z,1.50
2023-03-22T12:59:23.494Z,1.50
2023-03-22T13:02:16.495Z,1.70
2023-03-22T13:04:43.534Z,1.40
2023-03-22T13:07:10.248Z,1.10
2023-03-22T13:09:46.586Z,1.50
2023-03-22T13:12:16.689Z,1.50
2023-03-22T13:14:52.315Z,1.40
2023-03-22T13:17:25.527Z,2.10
2023-03-22T13:19:55.133Z,1.50
2023-03-22T13:22:27.393Z,1.70
2023-03-22T13:25:19.044Z,1.40
2023-03-22T13:27:46.178Z,1.40
2023-03-22T13:30:16.078Z,2.40
2023-03-22T13:32:54.578Z,1.50
2023-03-22T13:35:42.448Z,1.50
2023-03-22T13:38:34.429Z,1.60
2023-03-22T13:41:07.616Z,1.30
2023-03-22T13:43:36.107Z,1.90
2023-03-22T13:46:26.315Z,1.40
2023-03-22T13:48:55.021Z,1.40
2023-03-22T13:51:22.106Z,1.60
2023-03-22T13:54:00.516Z,1.50
2023-03-22T13:56:57.182Z,1.60
2023-03-22T13:59:27.694Z,1.50
2023-03-22T14:02:15.656Z,1.50
2023-03-22T14:04:58.950Z,1.60
2023-03-22T14:07:29.106Z,1.50
2023-03-22T14:10:01.037Z,1.70
2023-03-22T14:12:33.259Z,1.50
2023-03-22T14:15:03.730Z,1.80
2023-03-22T14:17:42.668Z,1.50
2023-03-22T14:20:15.888Z,1.90
